KAUN

Details ICAO KAUN
Name AUBURN MUNI
Region United States
Timezone America/Los_Angeles (UTC-7.0)
Plans Departing 19
Arriving 12
Stats Elevation 1,536 ft / 468 m (AMSL)
Location 38.954750° -121.081667°
Runways 1
Magnetic Variation 13.495° E
Sunrise 2018-05-26 12:45:00 UTC / 2018-05-26 05:45:00 Local
Sunset 2018-05-27 03:20:41 UTC / 2018-05-26 20:20:41 Local
Advertisement - Login to hide

Runways

ID Width Length Bearing (true) Bearing (mag) Surface Threshold Offset Overrun Length
07 75 ft / 23 m 3,713 ft / 1,132 m 83.42° 69.93° Asphalt 200 ft / 61 m 0 ft / 0 m
25 75 ft / 23 m 3,713 ft / 1,132 m 263.42° 249.93° Asphalt 0 ft / 0 m 0 ft / 0 m

Map

Weather


0- 5 10 15 20 25 30 35+ Temperature / ° C

Clouds and Precipitation
Forecast for 2018-05-26 18:00 UTC. Updated an hour ago

Ground ~20,000 ft ~40,000 ft Winds

METAR

KAUN 261835Z AUTO 28003KT 10SM FEW023 SCT047 BKN080 17/10 A3006 RMK AO1

TAF

Not found

Frequencies

Recorded 119.37 MHz AWOS 3
Approach 125.40 MHz NORCAL APP/DEP
Unicom 122.70 MHz CTAF/UNICOM
Warning: Do not use this data for real-world aviation or navigation. No guarantee of current accuracy is given.